createdAt,value
2018-04-15T07:38:44.940Z,34.57
2018-04-15T07:41:18.400Z,33.87
2018-04-15T07:43:52.036Z,36.60
2018-04-15T07:46:26.682Z,36.67
2018-04-15T07:49:00.371Z,37.67
2018-04-15T07:51:35.000Z,36.60
2018-04-15T07:54:08.636Z,36.30
2018-04-15T07:56:43.081Z,34.33
2018-04-15T07:59:16.730Z,34.47
2018-04-15T08:01:50.651Z,36.47
2018-04-15T08:04:25.069Z,36.20
2018-04-15T08:06:59.517Z,35.20
2018-04-15T08:09:33.153Z,34.07
2018-04-15T08:12:07.796Z,35.00
2018-04-15T08:14:42.393Z,34.23
2018-04-15T08:17:17.039Z,33.17
2018-04-15T08:19:50.686Z,33.13
2018-04-15T08:22:25.442Z,31.90
2018-04-15T08:24:59.531Z,33.53
2018-04-15T08:27:35.983Z,31.60
2018-04-15T08:30:09.618Z,30.90
2018-04-15T08:32:44.260Z,30.30
2018-04-15T08:35:17.887Z,28.30
2018-04-15T08:37:51.300Z,24.77
2018-04-15T08:40:25.943Z,23.87
2018-04-15T08:43:00.617Z,26.53
2018-04-15T08:45:35.219Z,25.83
2018-04-15T08:48:09.485Z,27.63
2018-04-15T08:50:43.884Z,26.67
2018-04-15T08:53:18.535Z,25.70
2018-04-15T08:55:53.185Z,26.77
2018-04-15T08:58:26.858Z,27.13
2018-04-15T09:01:00.744Z,25.97
2018-04-15T09:03:36.303Z,25.83
2018-04-15T09:06:19.372Z,26.40
2018-04-15T09:09:00.184Z,27.17
2018-04-15T09:11:46.097Z,26.03
2018-04-15T09:14:27.432Z,26.20
2018-04-15T09:19:55.342Z,24.57
2018-04-15T09:22:29.923Z,24.07
2018-04-15T09:25:04.509Z,23.97
2018-04-15T09:27:38.299Z,24.07
2018-04-15T09:30:12.878Z,24.93
2018-04-15T09:32:56.010Z,25.63
2018-04-15T09:35:34.509Z,25.50
2018-04-15T09:38:10.614Z,25.43
2018-04-15T09:40:48.474Z,25.73
2018-04-15T09:46:09.461Z,25.10
2018-04-15T09:48:46.565Z,24.17
2018-04-15T09:51:23.911Z,24.73
2018-04-15T09:54:02.180Z,23.02
2018-04-15T09:56:40.878Z,25.63
2018-04-15T09:59:16.395Z,24.73
2018-04-15T10:02:00.204Z,23.75
2018-04-15T10:04:37.401Z,27.67
2018-04-15T10:07:19.302Z,28.27
2018-04-15T10:09:58.847Z,28.27
2018-04-15T10:12:36.636Z,27.57
2018-04-15T10:15:17.528Z,26.85
2018-04-15T10:20:33.510Z,25.13
2018-04-15T10:23:10.115Z,26.30
2018-04-15T10:25:51.157Z,25.27
2018-04-15T10:28:27.486Z,25.63
2018-04-15T10:31:05.497Z,23.57
2018-04-15T10:33:43.562Z,23.87
2018-04-15T10:36:17.341Z,23.20
2018-04-15T10:38:51.008Z,23.40
2018-04-15T10:41:25.470Z,22.77
2018-04-15T10:44:01.155Z,22.67
2018-04-15T10:46:35.761Z,22.07
2018-04-15T10:49:09.435Z,22.20
2018-04-15T10:51:43.072Z,22.67
2018-04-15T10:54:18.533Z,22.83
2018-04-15T10:57:05.820Z,23.00
2018-04-15T10:59:39.656Z,23.13
2018-04-15T11:02:13.295Z,22.90
2018-04-15T11:04:47.956Z,24.43
2018-04-15T11:10:29.089Z,23.40
2018-04-15T11:13:15.493Z,21.97
2018-04-15T11:18:47.753Z,23.70
2018-04-15T11:21:25.364Z,22.83
2018-04-15T11:24:10.138Z,23.07
2018-04-15T11:26:47.491Z,22.73
2018-04-15T11:29:21.174Z,23.53
2018-04-15T11:31:59.264Z,23.13
2018-04-15T11:34:33.021Z,23.63
2018-04-15T11:37:12.397Z,26.50
2018-04-15T11:39:48.419Z,28.27
2018-04-15T11:42:23.850Z,28.17
2018-04-15T11:44:58.061Z,27.07
2018-04-15T11:47:33.490Z,26.50
2018-04-15T11:50:09.360Z,27.37
2018-04-15T11:52:46.056Z,26.07
2018-04-15T11:55:20.905Z,28.50
2018-04-15T11:57:56.939Z,27.73
2018-04-15T12:00:32.153Z,32.40
2018-04-15T12:03:09.321Z,33.43
2018-04-15T12:05:43.030Z,29.07
2018-04-15T12:08:16.773Z,24.90
2018-04-15T12:10:55.357Z,26.03
2018-04-15T12:13:30.739Z,24.60
2018-04-15T12:16:04.413Z,25.13
2018-04-15T12:18:39.780Z,22.73
2018-04-15T12:21:13.466Z,22.43
2018-04-15T12:23:49.091Z,21.70
2018-04-15T12:26:23.545Z,22.10
2018-04-15T12:28:58.182Z,21.27
2018-04-15T12:31:32.835Z,20.70
2018-04-15T12:34:07.423Z,21.47
2018-04-15T12:36:41.093Z,21.13
2018-04-15T12:39:15.499Z,21.37
2018-04-15T12:41:49.946Z,20.83
2018-04-15T12:44:23.594Z,18.10
2018-04-15T12:46:57.268Z,19.13
2018-04-15T12:49:30.916Z,18.57
2018-04-15T12:52:04.601Z,17.60
2018-04-15T12:54:38.255Z,18.00
2018-04-15T12:57:11.924Z,17.50
2018-04-15T12:59:46.548Z,18.33
2018-04-15T13:02:21.176Z,18.80
2018-04-15T13:04:55.581Z,17.63
2018-04-15T13:07:29.255Z,17.90
2018-04-15T13:10:06.277Z,18.07
2018-04-15T13:12:40.713Z,17.57
2018-04-15T13:15:14.390Z,16.20
2018-04-15T13:17:48.022Z,17.63
2018-04-15T13:20:21.744Z,18.23
2018-04-15T13:22:55.429Z,18.07
2018-04-15T13:25:31.594Z,18.60
2018-04-15T13:28:20.283Z,19.40
2018-04-15T13:30:57.791Z,20.10
2018-04-15T13:33:31.645Z,20.10
2018-04-15T13:36:06.304Z,20.20
2018-04-15T13:38:40.947Z,20.37
2018-04-15T13:41:14.632Z,20.30
2018-04-15T13:43:48.264Z,21.87
2018-04-15T13:46:23.675Z,21.80
2018-04-15T13:48:57.128Z,22.10
2018-04-15T13:51:30.443Z,20.83
2018-04-15T13:54:04.612Z,19.77
2018-04-15T13:56:39.015Z,21.87
2018-04-15T13:59:13.657Z,19.50
2018-04-15T14:01:49.043Z,20.23
2018-04-15T14:04:22.737Z,22.20
2018-04-15T14:06:58.032Z,20.67
2018-04-15T14:09:32.480Z,20.43
2018-04-15T14:12:11.200Z,20.00
2018-04-15T14:14:45.227Z,18.90
2018-04-15T14:17:18.869Z,19.13
2018-04-15T14:19:52.569Z,19.23
2018-04-15T14:22:27.738Z,19.83
2018-04-15T14:25:01.803Z,21.13
2018-04-15T14:27:46.149Z,20.20
2018-04-15T14:30:20.546Z,19.87
2018-04-15T14:32:56.389Z,18.87
2018-04-15T14:35:30.244Z,20.13
2018-04-15T14:38:03.949Z,19.97
2018-04-15T14:40:39.359Z,20.23
2018-04-15T14:43:14.116Z,20.03
2018-04-15T14:45:48.068Z,18.90
2018-04-15T14:48:22.710Z,21.00
2018-04-15T14:50:56.340Z,20.23
2018-04-15T14:53:31.012Z,21.33
2018-04-15T14:56:05.623Z,20.33
2018-04-15T14:58:39.291Z,21.80
2018-04-15T15:01:12.920Z,22.13
2018-04-15T15:03:46.605Z,21.83
2018-04-15T15:06:20.289Z,22.60
2018-04-15T15:08:53.971Z,22.63
2018-04-15T15:11:27.604Z,23.63
2018-04-15T15:14:04.290Z,22.17
2018-04-15T15:16:38.100Z,23.37
2018-04-15T15:19:11.593Z,23.53
2018-04-15T15:21:45.244Z,23.80
2018-04-15T15:24:19.889Z,22.63
2018-04-15T15:26:54.494Z,23.20
2018-04-15T15:29:28.164Z,24.17
2018-04-15T15:32:01.633Z,22.80
2018-04-15T15:34:37.078Z,22.67
2018-04-15T15:37:12.492Z,22.83
2018-04-15T15:39:46.163Z,23.53
2018-04-15T15:42:22.929Z,24.30
2018-04-15T15:44:59.230Z,24.00
2018-04-15T15:47:34.044Z,23.20
2018-04-15T15:50:10.608Z,24.77
2018-04-15T15:52:44.037Z,24.30
2018-04-15T15:55:19.472Z,23.40
2018-04-15T15:58:02.944Z,25.13
2018-04-15T16:00:39.529Z,22.80
2018-04-15T16:03:31.296Z,24.97
2018-04-15T16:06:06.167Z,23.63
2018-04-15T16:08:40.770Z,23.50
2018-04-15T16:11:14.448Z,24.53
2018-04-15T16:13:52.161Z,23.77
2018-04-15T16:16:25.920Z,23.10
2018-04-15T16:18:59.601Z,23.70
2018-04-15T16:21:33.462Z,25.17
2018-04-15T16:24:08.032Z,26.63
2018-04-15T16:26:43.560Z,27.10
2018-04-15T16:29:17.236Z,28.73
2018-04-15T16:31:52.648Z,27.67
2018-04-15T16:34:26.333Z,27.90
2018-04-15T16:36:59.988Z,28.63
2018-04-15T16:39:34.433Z,27.27
2018-04-15T16:42:08.077Z,27.00
2018-04-15T16:44:42.719Z,28.47
2018-04-15T16:47:16.906Z,29.47
2018-04-15T16:49:51.348Z,28.50
2018-04-15T16:52:24.693Z,28.20
2018-04-15T16:54:58.365Z,27.40
2018-04-15T16:57:32.074Z,27.90
2018-04-15T17:00:06.665Z,29.07
2018-04-15T17:02:41.313Z,25.93
2018-04-15T17:05:14.956Z,27.00
2018-04-15T17:07:48.644Z,26.57
2018-04-15T17:10:22.285Z,26.00
2018-04-15T17:12:55.984Z,26.13
2018-04-15T17:15:30.400Z,26.63
2018-04-15T17:18:05.071Z,25.93
2018-04-15T17:20:39.728Z,24.93
2018-04-15T17:23:14.364Z,25.20
2018-04-15T17:25:48.023Z,24.67
2018-04-15T17:28:21.700Z,25.67
2018-04-15T17:31:01.384Z,24.17
2018-04-15T17:33:36.117Z,25.67
2018-04-15T17:36:09.757Z,25.70
2018-04-15T17:38:44.198Z,26.27
2018-04-15T17:52:37.335Z,26.60
2018-04-15T17:55:11.821Z,27.97
2018-04-15T17:57:46.281Z,28.03
2018-04-15T18:00:19.967Z,28.70
2018-04-15T18:02:53.611Z,29.10
2018-04-15T18:05:27.323Z,28.63
2018-04-15T18:08:01.123Z,27.67
2018-04-15T18:10:34.796Z,28.67
2018-04-15T18:13:08.433Z,30.67
2018-04-15T18:15:42.111Z,28.20
2018-04-15T18:18:15.757Z,30.60
2018-04-15T18:20:49.468Z,30.90
2018-04-15T18:23:23.862Z,31.43
2018-04-15T18:25:59.551Z,31.50
2018-04-15T18:28:34.358Z,31.30
2018-04-15T18:31:09.285Z,32.60
2018-04-15T18:33:43.034Z,31.50
2018-04-15T18:36:16.803Z,34.07
2018-04-15T18:38:50.487Z,33.03
2018-04-15T18:41:27.240Z,34.50
2018-04-15T18:44:09.181Z,33.57
2018-04-15T18:46:45.466Z,35.43
2018-04-15T18:49:20.803Z,34.77
2018-04-15T18:51:54.438Z,33.37
2018-04-15T18:54:27.238Z,33.37
2018-04-15T18:57:02.410Z,34.70
2018-04-15T18:59:37.053Z,36.80
2018-04-15T19:02:10.727Z,34.63
2018-04-15T19:04:45.545Z,36.97
2018-04-15T19:07:20.461Z,36.87
2018-04-15T19:09:57.615Z,36.80
2018-04-15T19:12:31.248Z,36.53
2018-04-15T19:15:06.622Z,34.97
2018-04-15T19:17:40.256Z,35.13
2018-04-15T19:20:13.933Z,37.30
2018-04-15T19:22:48.976Z,37.07
2018-04-15T19:25:22.613Z,35.47
2018-04-15T19:27:57.267Z,36.80
2018-04-15T19:30:31.872Z,37.53
2018-04-15T19:33:06.308Z,36.73
2018-04-15T19:35:39.935Z,35.90
2018-04-15T19:38:15.058Z,37.30
2018-04-15T19:40:48.698Z,39.60
2018-04-15T19:43:22.184Z,37.33
2018-04-15T19:45:56.608Z,38.10
2018-04-15T19:48:30.093Z,36.83
2018-04-15T19:51:03.709Z,38.40
2018-04-15T19:53:38.029Z,38.23
2018-04-15T19:56:11.651Z,37.07
2018-04-15T19:58:45.320Z,36.57
2018-04-15T20:01:19.920Z,37.87
2018-04-15T20:03:54.890Z,36.73
2018-04-15T20:06:28.583Z,37.20
2018-04-15T20:09:02.257Z,35.10
2018-04-15T20:11:43.100Z,34.10
2018-04-15T20:14:17.769Z,35.00
2018-04-15T20:16:52.604Z,35.37
2018-04-15T20:19:26.273Z,35.47
2018-04-15T20:22:00.982Z,34.07
2018-04-15T20:24:34.624Z,32.10
2018-04-15T20:27:08.321Z,35.90
2018-04-15T20:29:41.951Z,34.40
2018-04-15T20:32:15.311Z,34.30
2018-04-15T20:34:48.943Z,34.40
2018-04-15T20:37:22.621Z,35.00
2018-04-15T20:39:55.979Z,34.23
2018-04-15T20:42:29.651Z,36.13
2018-04-15T20:45:04.097Z,33.10
2018-04-15T20:47:42.367Z,36.20
2018-04-15T20:50:18.625Z,33.97
2018-04-15T20:52:53.155Z,35.27
2018-04-15T20:55:30.119Z,34.00
2018-04-15T20:58:04.885Z,34.00
2018-04-15T21:00:40.989Z,35.60
2018-04-15T21:03:14.833Z,35.03
2018-04-15T21:05:50.821Z,34.50
2018-04-15T21:08:24.534Z,35.23
2018-04-15T21:10:58.753Z,33.80
2018-04-15T21:13:32.446Z,30.63
2018-04-15T21:16:06.764Z,34.27
2018-04-15T21:18:40.436Z,34.90
2018-04-15T21:21:14.089Z,35.13
2018-04-15T21:23:48.768Z,36.63
2018-04-15T21:26:22.536Z,34.77
2018-04-15T21:28:56.212Z,35.57
2018-04-15T21:31:30.438Z,35.43
2018-04-15T21:34:04.103Z,34.83
2018-04-15T21:36:37.739Z,34.77
2018-04-15T21:39:11.180Z,33.43
2018-04-15T21:41:44.588Z,35.80
2018-04-15T21:44:18.048Z,33.10
2018-04-15T21:46:52.441Z,34.10
2018-04-15T21:49:26.137Z,31.63
2018-04-15T21:51:59.769Z,34.97
2018-04-15T21:54:34.218Z,33.40
2018-04-15T21:57:07.628Z,33.30
2018-04-15T21:59:41.077Z,34.90
2018-04-15T22:02:15.468Z,34.07
2018-04-15T22:04:49.923Z,36.47
2018-04-15T22:07:24.548Z,32.53
2018-04-15T22:09:58.985Z,34.87
2018-04-15T22:12:33.527Z,35.37
2018-04-15T22:15:10.805Z,37.30
2018-04-15T22:17:44.444Z,36.10
2018-04-15T22:20:19.693Z,32.03
2018-04-15T22:22:54.565Z,35.57
2018-04-15T22:25:30.705Z,36.83
2018-04-15T22:28:04.346Z,34.53
2018-04-15T22:30:41.117Z,34.23
2018-04-15T22:33:15.406Z,34.83
2018-04-15T22:35:51.507Z,35.97
2018-04-15T22:38:25.167Z,36.93
2018-04-15T22:43:57.485Z,38.67
2018-04-15T22:46:36.654Z,30.80
2018-04-15T22:49:15.778Z,32.53
2018-04-15T22:51:49.458Z,30.20
2018-04-15T22:54:23.616Z,33.57
2018-04-15T22:57:02.927Z,32.87
2018-04-15T22:59:37.510Z,30.30
2018-04-15T23:02:16.807Z,32.27
2018-04-15T23:07:30.507Z,31.57
2018-04-15T23:10:07.815Z,32.43
2018-04-15T23:12:42.025Z,33.57
2018-04-15T23:15:17.308Z,35.27
2018-04-15T23:17:51.396Z,32.57
2018-04-15T23:20:29.140Z,34.53
2018-04-15T23:23:05.025Z,31.87
2018-04-15T23:25:38.666Z,34.93
2018-04-15T23:28:13.296Z,33.27
2018-04-15T23:30:48.174Z,32.93
2018-04-15T23:33:27.240Z,32.53
2018-04-15T23:36:01.116Z,31.40
2018-04-15T23:38:38.058Z,31.00
2018-04-15T23:41:13.153Z,37.03
2018-04-15T23:43:47.503Z,36.97
2018-04-15T23:46:21.140Z,36.90
2018-04-15T23:48:56.059Z,36.83
2018-04-15T23:51:29.693Z,35.23
2018-04-15T23:54:06.324Z,31.87
2018-04-15T23:56:39.745Z,35.17
2018-04-15T23:59:22.139Z,36.53
